sensor_id;sensor_type;location;lat;lon;timestamp;pressure;altitude;pressure_sealevel;temperature;humidity
63019;BME280;49105;46.046;10.760;2023-03-16T00:02:04;95843.22;;;2.03;45.83
63019;BME280;49105;46.046;10.760;2023-03-16T00:04:39;95849.91;;;1.92;46.28
63019;BME280;49105;46.046;10.760;2023-03-16T00:07:16;95848.88;;;1.93;45.90
63019;BME280;49105;46.046;10.760;2023-03-16T00:09:42;95854.06;;;1.99;46.40
63019;BME280;49105;46.046;10.760;2023-03-16T00:12:16;95847.78;;;2.07;45.64
63019;BME280;49105;46.046;10.760;2023-03-16T00:14:48;95849.16;;;2.10;45.77
63019;BME280;49105;46.046;10.760;2023-03-16T00:17:22;95852.38;;;2.12;45.70
63019;BME280;49105;46.046;10.760;2023-03-16T00:19:57;95843.94;;;2.10;45.56
63019;BME280;49105;46.046;10.760;2023-03-16T00:22:29;95845.03;;;2.02;45.75
63019;BME280;49105;46.046;10.760;2023-03-16T00:25:08;95849.75;;;1.87;46.49
63019;BME280;49105;46.046;10.760;2023-03-16T00:27:43;95851.16;;;1.89;46.56
63019;BME280;49105;46.046;10.760;2023-03-16T00:30:09;95852.09;;;1.95;46.43
63019;BME280;49105;46.046;10.760;2023-03-16T00:32:44;95855.72;;;1.94;45.78
63019;BME280;49105;46.046;10.760;2023-03-16T00:38:34;95861.31;;;1.97;46.26
63019;BME280;49105;46.046;10.760;2023-03-16T00:41:01;95862.13;;;1.98;46.01
63019;BME280;49105;46.046;10.760;2023-03-16T00:43:34;95851.63;;;2.05;45.96
63019;BME280;49105;46.046;10.760;2023-03-16T00:46:17;95850.06;;;1.97;46.07
63019;BME280;49105;46.046;10.760;2023-03-16T00:48:46;95853.91;;;1.94;45.86
63019;BME280;49105;46.046;10.760;2023-03-16T00:51:16;95854.50;;;1.96;45.62
63019;BME280;49105;46.046;10.760;2023-03-16T00:53:45;95848.09;;;1.92;46.14
63019;BME280;49105;46.046;10.760;2023-03-16T00:56:20;95854.69;;;1.70;46.89
63019;BME280;49105;46.046;10.760;2023-03-16T00:58:51;95849.97;;;1.54;47.11
63019;BME280;49105;46.046;10.760;2023-03-16T01:01:21;95851.16;;;1.58;47.48
63019;BME280;49105;46.046;10.760;2023-03-16T01:03:47;95847.50;;;1.65;46.74
63019;BME280;49105;46.046;10.760;2023-03-16T01:06:31;95849.47;;;1.70;46.51
63019;BME280;49105;46.046;10.760;2023-03-16T01:09:05;95847.88;;;1.69;46.61
63019;BME280;49105;46.046;10.760;2023-03-16T01:11:31;95847.28;;;1.67;46.77
63019;BME280;49105;46.046;10.760;2023-03-16T01:14:05;95848.88;;;1.68;46.53
63019;BME280;49105;46.046;10.760;2023-03-16T01:16:30;95845.88;;;1.64;47.25
63019;BME280;49105;46.046;10.760;2023-03-16T01:19:00;95847.31;;;1.60;46.72
63019;BME280;49105;46.046;10.760;2023-03-16T01:21:26;95844.34;;;1.57;47.49
63019;BME280;49105;46.046;10.760;2023-03-16T01:23:53;95847.31;;;1.60;46.90
63019;BME280;49105;46.046;10.760;2023-03-16T01:26:24;95840.66;;;1.64;46.54
63019;BME280;49105;46.046;10.760;2023-03-16T01:28:58;95838.69;;;1.60;46.81
63019;BME280;49105;46.046;10.760;2023-03-16T01:31:24;95833.72;;;1.52;46.86
63019;BME280;49105;46.046;10.760;2023-03-16T01:33:49;95845.81;;;1.46;47.87
63019;BME280;49105;46.046;10.760;2023-03-16T01:36:17;95842.03;;;1.42;47.90
63019;BME280;49105;46.046;10.760;2023-03-16T01:38:52;95833.97;;;1.43;47.66
63019;BME280;49105;46.046;10.760;2023-03-16T01:41:27;95833.16;;;1.49;47.48
63019;BME280;49105;46.046;10.760;2023-03-16T01:43:59;95829.56;;;1.44;47.71
63019;BME280;49105;46.046;10.760;2023-03-16T01:46:26;95828.84;;;1.30;47.83
63019;BME280;49105;46.046;10.760;2023-03-16T01:51:51;95823.22;;;1.33;48.18
63019;BME280;49105;46.046;10.760;2023-03-16T01:57:08;95819.75;;;1.39;47.75
63019;BME280;49105;46.046;10.760;2023-03-16T01:59:38;95813.91;;;1.44;48.41
63019;BME280;49105;46.046;10.760;2023-03-16T02:02:18;95817.13;;;1.46;47.80
63019;BME280;49105;46.046;10.760;2023-03-16T02:05:01;95807.50;;;1.40;47.88
63019;BME280;49105;46.046;10.760;2023-03-16T02:07:33;95812.38;;;1.36;48.27
63019;BME280;49105;46.046;10.760;2023-03-16T02:10:08;95810.75;;;1.35;48.08
63019;BME280;49105;46.046;10.760;2023-03-16T02:12:45;95814.75;;;1.38;48.44
63019;BME280;49105;46.046;10.760;2023-03-16T02:15:12;95818.56;;;1.35;47.79
63019;BME280;49105;46.046;10.760;2023-03-16T02:17:48;95823.06;;;1.21;48.68
63019;BME280;49105;46.046;10.760;2023-03-16T02:20:22;95815.72;;;1.12;48.70
63019;BME280;49105;46.046;10.760;2023-03-16T02:22:52;95816.69;;;1.17;48.47
63019;BME280;49105;46.046;10.760;2023-03-16T02:25:46;95817.69;;;1.16;48.60
63019;BME280;49105;46.046;10.760;2023-03-16T02:28:27;95819.28;;;1.17;48.95
63019;BME280;49105;46.046;10.760;2023-03-16T02:31:03;95816.06;;;1.22;48.34
63019;BME280;49105;46.046;10.760;2023-03-16T02:33:30;95817.88;;;1.15;48.18
63019;BME280;49105;46.046;10.760;2023-03-16T02:36:03;95810.06;;;1.15;48.49
63019;BME280;49105;46.046;10.760;2023-03-16T02:38:34;95809.72;;;1.11;48.88
63019;BME280;49105;46.046;10.760;2023-03-16T02:41:12;95820.00;;;0.99;48.93
63019;BME280;49105;46.046;10.760;2023-03-16T02:43:49;95817.41;;;0.93;49.21
63019;BME280;49105;46.046;10.760;2023-03-16T02:46:20;95823.78;;;0.97;49.34
63019;BME280;49105;46.046;10.760;2023-03-16T02:49:08;95824.25;;;0.87;49.30
63019;BME280;49105;46.046;10.760;2023-03-16T02:51:38;95820.25;;;0.78;49.71
63019;BME280;49105;46.046;10.760;2023-03-16T02:54:05;95810.25;;;0.75;49.99
63019;BME280;49105;46.046;10.760;2023-03-16T02:56:36;95819.84;;;0.81;49.85
63019;BME280;49105;46.046;10.760;2023-03-16T02:59:01;95818.66;;;0.84;50.03
63019;BME280;49105;46.046;10.760;2023-03-16T03:01:27;95823.44;;;0.87;49.77
63019;BME280;49105;46.046;10.760;2023-03-16T03:03:52;95814.63;;;0.88;49.55
63019;BME280;49105;46.046;10.760;2023-03-16T03:06:24;95820.84;;;0.87;49.38
63019;BME280;49105;46.046;10.760;2023-03-16T03:08:53;95826.22;;;0.92;49.72
63019;BME280;49105;46.046;10.760;2023-03-16T03:11:27;95831.47;;;0.85;49.74
63019;BME280;49105;46.046;10.760;2023-03-16T03:14:02;95834.69;;;0.81;49.75
63019;BME280;49105;46.046;10.760;2023-03-16T03:16:40;95834.28;;;0.84;49.75
63019;BME280;49105;46.046;10.760;2023-03-16T03:19:05;95829.41;;;0.94;49.31
63019;BME280;49105;46.046;10.760;2023-03-16T03:21:40;95837.44;;;0.92;49.05
63019;BME280;49105;46.046;10.760;2023-03-16T03:24:06;95838.25;;;0.93;49.63
63019;BME280;49105;46.046;10.760;2023-03-16T03:26:35;95840.28;;;0.84;49.40
63019;BME280;49105;46.046;10.760;2023-03-16T03:29:08;95842.50;;;0.74;49.50
63019;BME280;49105;46.046;10.760;2023-03-16T03:31:42;95850.38;;;0.61;50.12
63019;BME280;49105;46.046;10.760;2023-03-16T03:34:08;95850.38;;;0.61;50.35
63019;BME280;49105;46.046;10.760;2023-03-16T03:36:43;95850.38;;;0.67;50.09
63019;BME280;49105;46.046;10.760;2023-03-16T03:39:09;95857.16;;;0.75;50.34
63019;BME280;49105;46.046;10.760;2023-03-16T03:41:40;95853.94;;;0.73;50.04
63019;BME280;49105;46.046;10.760;2023-03-16T03:44:06;95862.38;;;0.75;49.94
63019;BME280;49105;46.046;10.760;2023-03-16T03:46:40;95860.56;;;0.76;49.85
63019;BME280;49105;46.046;10.760;2023-03-16T03:49:15;95859.31;;;0.78;50.14
63019;BME280;49105;46.046;10.760;2023-03-16T03:54:53;95868.78;;;0.72;49.99
63019;BME280;49105;46.046;10.760;2023-03-16T03:57:19;95866.38;;;0.71;49.97
63019;BME280;49105;46.046;10.760;2023-03-16T03:59:50;95868.97;;;0.78;49.81
63019;BME280;49105;46.046;10.760;2023-03-16T04:02:25;95860.34;;;0.77;49.88
63019;BME280;49105;46.046;10.760;2023-03-16T04:04:50;95878.22;;;0.67;49.78
63019;BME280;49105;46.046;10.760;2023-03-16T04:07:16;95875.22;;;0.57;50.24
63019;BME280;49105;46.046;10.760;2023-03-16T04:09:51;95880.03;;;0.60;50.41
63019;BME280;49105;46.046;10.760;2023-03-16T04:12:16;95873.41;;;0.64;50.58
63019;BME280;49105;46.046;10.760;2023-03-16T04:14:47;95886.84;;;0.61;50.42
63019;BME280;49105;46.046;10.760;2023-03-16T04:17:22;95884.44;;;0.59;50.17
63019;BME280;49105;46.046;10.760;2023-03-16T04:19:51;95885.44;;;0.58;50.42
63019;BME280;49105;46.046;10.760;2023-03-16T04:22:17;95879.44;;;0.58;49.90
63019;BME280;49105;46.046;10.760;2023-03-16T04:24:45;95882.84;;;0.58;49.83
63019;BME280;49105;46.046;10.760;2023-03-16T04:27:20;95877.25;;;0.55;50.07
63019;BME280;49105;46.046;10.760;2023-03-16T04:29:45;95883.69;;;0.45;50.87
63019;BME280;49105;46.046;10.760;2023-03-16T04:32:17;95885.88;;;0.35;50.89
63019;BME280;49105;46.046;10.760;2023-03-16T04:34:46;95893.28;;;0.38;51.16
63019;BME280;49105;46.046;10.760;2023-03-16T04:37:21;95889.28;;;0.42;50.91
63019;BME280;49105;46.046;10.760;2023-03-16T04:39:47;95892.06;;;0.41;50.80
63019;BME280;49105;46.046;10.760;2023-03-16T04:42:12;95887.69;;;0.28;51.40
63019;BME280;49105;46.046;10.760;2023-03-16T04:44:43;95888.09;;;0.25;51.17
63019;BME280;49105;46.046;10.760;2023-03-16T04:47:10;95890.69;;;0.32;50.96
63019;BME280;49105;46.046;10.760;2023-03-16T04:49:45;95892.09;;;0.34;51.31
63019;BME280;49105;46.046;10.760;2023-03-16T04:52:11;95883.66;;;0.32;51.37
63019;BME280;49105;46.046;10.760;2023-03-16T04:54:42;95891.28;;;0.34;51.13
63019;BME280;49105;46.046;10.760;2023-03-16T04:57:08;95887.47;;;0.43;51.36
63019;BME280;49105;46.046;10.760;2023-03-16T04:59:36;95900.28;;;0.44;50.89
63019;BME280;49105;46.046;10.760;2023-03-16T05:02:08;95894.09;;;0.32;51.53
63019;BME280;49105;46.046;10.760;2023-03-16T05:04:43;95900.09;;;0.33;51.78
63019;BME280;49105;46.046;10.760;2023-03-16T05:07:14;95899.91;;;0.34;51.57
63019;BME280;49105;46.046;10.760;2023-03-16T05:09:40;95908.91;;;0.38;51.29
63019;BME280;49105;46.046;10.760;2023-03-16T05:12:14;95901.69;;;0.40;50.94
63019;BME280;49105;46.046;10.760;2023-03-16T05:14:50;95903.72;;;0.38;50.97
63019;BME280;49105;46.046;10.760;2023-03-16T05:17:16;95905.72;;;0.30;51.19
63019;BME280;49105;46.046;10.760;2023-03-16T05:19:53;95898.50;;;0.25;51.42
63019;BME280;49105;46.046;10.760;2023-03-16T05:22:18;95914.09;;;0.12;51.56
63019;BME280;49105;46.046;10.760;2023-03-16T05:24:53;95907.13;;;0.06;52.04
63019;BME280;49105;46.046;10.760;2023-03-16T05:27:31;95911.72;;;0.10;52.05
63019;BME280;49105;46.046;10.760;2023-03-16T05:29:56;95908.72;;;0.13;51.96
63019;BME280;49105;46.046;10.760;2023-03-16T05:32:25;95920.50;;;0.16;52.01
63019;BME280;49105;46.046;10.760;2023-03-16T05:34:56;95921.53;;;0.21;52.03
63019;BME280;49105;46.046;10.760;2023-03-16T05:37:22;95924.91;;;0.29;52.11
63019;BME280;49105;46.046;10.760;2023-03-16T05:39:57;95922.91;;;0.44;51.86
63019;BME280;49105;46.046;10.760;2023-03-16T05:42:32;95925.53;;;0.51;51.21
63019;BME280;49105;46.046;10.760;2023-03-16T05:45:05;95928.91;;;0.44;51.55
63019;BME280;49105;46.046;10.760;2023-03-16T05:47:30;95934.97;;;0.25;51.62
63019;BME280;49105;46.046;10.760;2023-03-16T05:49:56;95930.16;;;0.09;52.30
63019;BME280;49105;46.046;10.760;2023-03-16T05:52:30;95939.13;;;-0.01;52.70
63019;BME280;49105;46.046;10.760;2023-03-16T05:55:03;95936.50;;;-0.14;53.05
63019;BME280;49105;46.046;10.760;2023-03-16T05:57:39;95943.94;;;-0.04;53.21
63019;BME280;49105;46.046;10.760;2023-03-16T06:00:12;95947.16;;;0.05;52.56
63019;BME280;49105;46.046;10.760;2023-03-16T06:02:46;95952.97;;;0.13;52.71
63019;BME280;49105;46.046;10.760;2023-03-16T06:05:21;95950.16;;;0.21;52.57
63019;BME280;49105;46.046;10.760;2023-03-16T06:07:54;95953.56;;;0.22;52.35
63019;BME280;49105;46.046;10.760;2023-03-16T06:10:25;95946.97;;;0.26;52.47
63019;BME280;49105;46.046;10.760;2023-03-16T06:12:57;95946.16;;;0.32;52.13
63019;BME280;49105;46.046;10.760;2023-03-16T06:15:35;95964.59;;;0.37;52.24
63019;BME280;49105;46.046;10.760;2023-03-16T06:18:10;95957.97;;;0.35;52.16
63019;BME280;49105;46.046;10.760;2023-03-16T06:20:35;95970.97;;;0.28;52.56
63019;BME280;49105;46.046;10.760;2023-03-16T06:23:10;95974.00;;;0.38;52.44
63019;BME280;49105;46.046;10.760;2023-03-16T06:25:35;95968.38;;;0.48;52.01
63019;BME280;49105;46.046;10.760;2023-03-16T06:28:13;95965.59;;;0.43;52.17
63019;BME280;49105;46.046;10.760;2023-03-16T06:30:48;95976.59;;;0.45;52.39
63019;BME280;49105;46.046;10.760;2023-03-16T06:33:17;95977.78;;;0.49;52.21
63019;BME280;49105;46.046;10.760;2023-03-16T06:35:42;95979.41;;;0.43;52.22
63019;BME280;49105;46.046;10.760;2023-03-16T06:38:20;95980.22;;;0.37;52.17
63019;BME280;49105;46.046;10.760;2023-03-16T06:40:50;95986.81;;;0.40;52.25
63019;BME280;49105;46.046;10.760;2023-03-16T06:43:16;95989.41;;;0.40;52.49
63019;BME280;49105;46.046;10.760;2023-03-16T06:45:48;95991.63;;;0.49;52.38
63019;BME280;49105;46.046;10.760;2023-03-16T06:48:13;95983.41;;;0.53;52.73
63019;BME280;49105;46.046;10.760;2023-03-16T06:50:39;95984.81;;;0.68;52.19
63019;BME280;49105;46.046;10.760;2023-03-16T06:53:10;95988.41;;;0.87;52.65
63019;BME280;49105;46.046;10.760;2023-03-16T06:55:42;95983.16;;;1.01;52.53
63019;BME280;49105;46.046;10.760;2023-03-16T06:58:17;95990.56;;;1.10;51.77
63019;BME280;49105;46.046;10.760;2023-03-16T07:00:43;95988.16;;;1.15;52.08
63019;BME280;49105;46.046;10.760;2023-03-16T07:03:17;95994.16;;;1.16;52.09
63019;BME280;49105;46.046;10.760;2023-03-16T07:09:05;95999.75;;;1.26;52.17
63019;BME280;49105;46.046;10.760;2023-03-16T07:11:30;96003.75;;;1.29;52.25
63019;BME280;49105;46.046;10.760;2023-03-16T07:14:06;96001.31;;;1.34;52.33
63019;BME280;49105;46.046;10.760;2023-03-16T07:16:31;95997.69;;;1.41;52.29
63019;BME280;49105;46.046;10.760;2023-03-16T07:18:57;95997.06;;;1.53;52.39
63019;BME280;49105;46.046;10.760;2023-03-16T07:21:29;95999.00;;;1.64;52.36
63019;BME280;49105;46.046;10.760;2023-03-16T07:23:56;96005.78;;;1.78;51.85
63019;BME280;49105;46.046;10.760;2023-03-16T07:26:32;96008.16;;;1.86;51.81
63019;BME280;49105;46.046;10.760;2023-03-16T07:29:04;96011.09;;;1.96;51.98
63019;BME280;49105;46.046;10.760;2023-03-16T07:31:39;96012.69;;;1.97;51.59
63019;BME280;49105;46.046;10.760;2023-03-16T07:34:05;96006.66;;;2.04;51.60
63019;BME280;49105;46.046;10.760;2023-03-16T07:36:31;96010.22;;;2.09;51.64
63019;BME280;49105;46.046;10.760;2023-03-16T07:39:06;96015.00;;;2.19;51.59
63019;BME280;49105;46.046;10.760;2023-03-16T07:41:37;96005.69;;;2.30;51.75
63019;BME280;49105;46.046;10.760;2023-03-16T07:44:12;96015.16;;;2.31;51.82
63019;BME280;49105;46.046;10.760;2023-03-16T07:46:38;96017.31;;;2.34;51.36
63019;BME280;49105;46.046;10.760;2023-03-16T07:49:09;96024.97;;;2.35;50.97
63019;BME280;49105;46.046;10.760;2023-03-16T07:51:45;96018.84;;;2.48;51.33
63019;BME280;49105;46.046;10.760;2023-03-16T07:54:10;96026.00;;;2.59;50.94
63019;BME280;49105;46.046;10.760;2023-03-16T07:56:36;96023.84;;;2.74;50.62
63019;BME280;49105;46.046;10.760;2023-03-16T07:59:08;96026.63;;;2.80;50.53
63019;BME280;49105;46.046;10.760;2023-03-16T08:01:33;96020.06;;;2.95;49.68
63019;BME280;49105;46.046;10.760;2023-03-16T08:04:04;96018.50;;;3.13;49.66
63019;BME280;49105;46.046;10.760;2023-03-16T08:06:33;96018.22;;;3.21;49.53
63019;BME280;49105;46.046;10.760;2023-03-16T08:08:59;96019.59;;;3.23;49.26
63019;BME280;49105;46.046;10.760;2023-03-16T08:11:35;96022.16;;;3.30;48.99
63019;BME280;49105;46.046;10.760;2023-03-16T08:14:07;96017.94;;;3.47;49.10
63019;BME280;49105;46.046;10.760;2023-03-16T08:16:36;96014.50;;;3.65;48.60
63019;BME280;49105;46.046;10.760;2023-03-16T08:19:01;96008.31;;;3.78;48.34
63019;BME280;49105;46.046;10.760;2023-03-16T08:21:33;96006.91;;;3.94;48.22
63019;BME280;49105;46.046;10.760;2023-03-16T08:24:00;96009.59;;;4.06;47.65
63019;BME280;49105;46.046;10.760;2023-03-16T08:26:35;96010.63;;;4.05;47.46
63019;BME280;49105;46.046;10.760;2023-03-16T08:29:00;96011.34;;;4.12;47.63
63019;BME280;49105;46.046;10.760;2023-03-16T08:31:30;95996.47;;;4.24;47.47
63019;BME280;49105;46.046;10.760;2023-03-16T08:34:02;96002.75;;;4.35;47.06
63019;BME280;49105;46.046;10.760;2023-03-16T08:36:37;96003.09;;;4.38;46.77
63019;BME280;49105;46.046;10.760;2023-03-16T08:39:06;96002.66;;;4.41;46.62
63019;BME280;49105;46.046;10.760;2023-03-16T08:41:32;95994.03;;;4.53;46.87
63019;BME280;49105;46.046;10.760;2023-03-16T08:44:08;96002.13;;;4.63;46.65
63019;BME280;49105;46.046;10.760;2023-03-16T08:46:35;96000.19;;;4.70;45.91
63019;BME280;49105;46.046;10.760;2023-03-16T08:49:06;96003.50;;;4.77;46.10
63019;BME280;49105;46.046;10.760;2023-03-16T08:51:32;96000.22;;;4.82;46.07
63019;BME280;49105;46.046;10.760;2023-03-16T08:54:07;95993.81;;;4.89;45.11
63019;BME280;49105;46.046;10.760;2023-03-16T08:56:32;95998.63;;;4.92;45.35
63019;BME280;49105;46.046;10.760;2023-03-16T08:59:04;95999.06;;;5.01;44.96
63019;BME280;49105;46.046;10.760;2023-03-16T09:01:42;95998.38;;;5.06;44.87
63019;BME280;49105;46.046;10.760;2023-03-16T09:04:07;95993.63;;;5.14;44.90
63019;BME280;49105;46.046;10.760;2023-03-16T09:06:42;95992.22;;;5.23;44.56
63019;BME280;49105;46.046;10.760;2023-03-16T09:09:08;95994.03;;;5.35;44.58
63019;BME280;49105;46.046;10.760;2023-03-16T09:11:39;95991.16;;;5.48;44.51
63019;BME280;49105;46.046;10.760;2023-03-16T09:14:05;95989.53;;;5.59;43.89
63019;BME280;49105;46.046;10.760;2023-03-16T09:16:37;95997.63;;;5.69;43.88
63019;BME280;49105;46.046;10.760;2023-03-16T09:19:09;95990.97;;;5.78;43.74
63019;BME280;49105;46.046;10.760;2023-03-16T09:21:35;95987.97;;;5.86;43.28
63019;BME280;49105;46.046;10.760;2023-03-16T09:24:05;95993.94;;;5.93;42.71
63019;BME280;49105;46.046;10.760;2023-03-16T09:26:32;95988.69;;;5.93;42.13
63019;BME280;49105;46.046;10.760;2023-03-16T09:28:58;95997.19;;;6.01;42.27
63019;BME280;49105;46.046;10.760;2023-03-16T09:31:32;95986.09;;;6.10;41.99
63019;BME280;49105;46.046;10.760;2023-03-16T09:33:58;95985.00;;;6.23;41.88
63019;BME280;49105;46.046;10.760;2023-03-16T09:36:24;95986.09;;;6.39;41.67
63019;BME280;49105;46.046;10.760;2023-03-16T09:38:51;95986.56;;;6.53;41.79
63019;BME280;49105;46.046;10.760;2023-03-16T09:44:30;95975.44;;;6.79;41.40
63019;BME280;49105;46.046;10.760;2023-03-16T09:47:00;95981.88;;;6.88;41.60
63019;BME280;49105;46.046;10.760;2023-03-16T09:49:35;95960.22;;;7.03;41.09
63019;BME280;49105;46.046;10.760;2023-03-16T09:57:29;95960.34;;;7.30;41.07
63019;BME280;49105;46.046;10.760;2023-03-16T09:59:56;95955.78;;;7.42;40.69
63019;BME280;49105;46.046;10.760;2023-03-16T10:03:28;95953.25;;;7.53;40.83
63019;BME280;49105;46.046;10.760;2023-03-16T10:05:41;95960.19;;;7.59;40.32
63019;BME280;49105;46.046;10.760;2023-03-16T10:08:24;95941.31;;;7.67;39.99
63019;BME280;49105;46.046;10.760;2023-03-16T10:13:48;95948.84;;;7.80;39.95
63019;BME280;49105;46.046;10.760;2023-03-16T10:16:20;95948.69;;;7.92;38.97
63019;BME280;49105;46.046;10.760;2023-03-16T10:18:58;95952.31;;;8.08;38.88
63019;BME280;49105;46.046;10.760;2023-03-16T10:27:38;95944.69;;;8.38;34.95
63019;BME280;49105;46.046;10.760;2023-03-16T10:30:24;95951.06;;;8.42;35.20
63019;BME280;49105;46.046;10.760;2023-03-16T10:32:51;95947.16;;;8.50;34.62
63019;BME280;49105;46.046;10.760;2023-03-16T10:35:36;95944.81;;;8.54;34.25
63019;BME280;49105;46.046;10.760;2023-03-16T10:38:07;95948.28;;;8.59;33.08
63019;BME280;49105;46.046;10.760;2023-03-16T10:40:37;95946.75;;;8.63;34.02
63019;BME280;49105;46.046;10.760;2023-03-16T10:43:12;95938.63;;;8.70;34.87
63019;BME280;49105;46.046;10.760;2023-03-16T10:45:44;95945.00;;;8.74;34.21
63019;BME280;49105;46.046;10.760;2023-03-16T10:48:19;95933.41;;;8.80;34.19
63019;BME280;49105;46.046;10.760;2023-03-16T10:50:50;95947.22;;;8.92;34.89
63019;BME280;49105;46.046;10.760;2023-03-16T10:53:40;95942.50;;;8.94;32.95
63019;BME280;49105;46.046;10.760;2023-03-16T10:56:12;95941.44;;;8.95;32.58
63019;BME280;49105;46.046;10.760;2023-03-16T10:58:48;95930.63;;;8.97;32.46
63019;BME280;49105;46.046;10.760;2023-03-16T11:01:27;95928.59;;;9.09;33.48
63019;BME280;49105;46.046;10.760;2023-03-16T11:04:12;95918.06;;;9.14;32.83
63019;BME280;49105;46.046;10.760;2023-03-16T11:06:47;95928.88;;;9.13;32.93
63019;BME280;49105;46.046;10.760;2023-03-16T11:09:19;95928.94;;;9.23;33.02
63019;BME280;49105;46.046;10.760;2023-03-16T11:11:56;95921.03;;;9.28;32.79
63019;BME280;49105;46.046;10.760;2023-03-16T11:14:25;95917.38;;;9.34;32.85
63019;BME280;49105;46.046;10.760;2023-03-16T11:17:11;95915.56;;;9.45;33.07
63019;BME280;49105;46.046;10.760;2023-03-16T11:20:12;95906.81;;;9.39;31.64
63019;BME280;49105;46.046;10.760;2023-03-16T11:22:47;95910.78;;;9.42;31.58
63019;BME280;49105;46.046;10.760;2023-03-16T11:25:35;95906.06;;;9.49;31.95
63019;BME280;49105;46.046;10.760;2023-03-16T11:30:45;95898.69;;;9.51;31.68
63019;BME280;49105;46.046;10.760;2023-03-16T11:33:15;95905.56;;;9.57;31.66
63019;BME280;49105;46.046;10.760;2023-03-16T11:41:36;95891.63;;;9.77;31.72
63019;BME280;49105;46.046;10.760;2023-03-16T11:50:00;95891.09;;;9.80;32.51
63019;BME280;49105;46.046;10.760;2023-03-16T11:55:20;95876.84;;;9.81;33.03
63019;BME280;49105;46.046;10.760;2023-03-16T12:09:01;95857.81;;;9.94;33.30
63019;BME280;49105;46.046;10.760;2023-03-16T12:12:03;95855.97;;;10.05;33.10
63019;BME280;49105;46.046;10.760;2023-03-16T12:14:40;95852.28;;;10.11;33.88
63019;BME280;49105;46.046;10.760;2023-03-16T12:17:15;95856.25;;;10.14;33.02
63019;BME280;49105;46.046;10.760;2023-03-16T12:20:02;95853.34;;;10.10;33.37
63019;BME280;49105;46.046;10.760;2023-03-16T12:22:41;95846.19;;;10.06;33.57
63019;BME280;49105;46.046;10.760;2023-03-16T12:25:17;95854.41;;;10.04;34.06
63019;BME280;49105;46.046;10.760;2023-03-16T12:27:48;95844.06;;;10.03;33.87
63019;BME280;49105;46.046;10.760;2023-03-16T12:38:55;95849.34;;;10.03;34.57
63019;BME280;49105;46.046;10.760;2023-03-16T12:49:23;95828.22;;;10.28;35.55
63019;BME280;49105;46.046;10.760;2023-03-16T12:52:00;95817.66;;;10.38;35.47
63019;BME280;49105;46.046;10.760;2023-03-16T12:54:33;95822.41;;;10.47;35.22
63019;BME280;49105;46.046;10.760;2023-03-16T12:57:08;95823.47;;;10.51;35.47
63019;BME280;49105;46.046;10.760;2023-03-16T12:59:42;95824.50;;;10.55;35.63
63019;BME280;49105;46.046;10.760;2023-03-16T13:05:13;95841.41;;;10.79;35.54
63019;BME280;49105;46.046;10.760;2023-03-16T13:07:47;95833.22;;;10.76;34.74
63019;BME280;49105;46.046;10.760;2023-03-16T13:10:20;95822.34;;;10.77;35.06
63019;BME280;49105;46.046;10.760;2023-03-16T13:13:10;95825.53;;;10.74;34.20
63019;BME280;49105;46.046;10.760;2023-03-16T13:15:36;95826.06;;;10.71;34.70
63019;BME280;49105;46.046;10.760;2023-03-16T13:20:30;95818.66;;;10.73;34.36
63019;BME280;49105;46.046;10.760;2023-03-16T13:28:31;95812.28;;;10.79;34.78
63019;BME280;49105;46.046;10.760;2023-03-16T13:31:44;95810.13;;;10.91;34.82
63019;BME280;49105;46.046;10.760;2023-03-16T13:37:31;95804.03;;;10.86;34.02
63019;BME280;49105;46.046;10.760;2023-03-16T13:40:17;95794.25;;;10.81;34.33
63019;BME280;49105;46.046;10.760;2023-03-16T13:42:50;95797.44;;;10.83;34.75
63019;BME280;49105;46.046;10.760;2023-03-16T13:45:31;95795.31;;;10.90;34.85
63019;BME280;49105;46.046;10.760;2023-03-16T13:47:59;95802.19;;;10.91;34.49
63019;BME280;49105;46.046;10.760;2023-03-16T13:50:35;95793.47;;;10.91;35.32
63019;BME280;49105;46.046;10.760;2023-03-16T13:53:17;95787.84;;;10.98;35.25
63019;BME280;49105;46.046;10.760;2023-03-16T13:55:52;95782.56;;;10.98;35.21
63019;BME280;49105;46.046;10.760;2023-03-16T13:58:25;95782.09;;;10.90;34.46
63019;BME280;49105;46.046;10.760;2023-03-16T14:01:04;95781.03;;;10.86;34.75
63019;BME280;49105;46.046;10.760;2023-03-16T14:03:38;95776.22;;;10.93;35.13
63019;BME280;49105;46.046;10.760;2023-03-16T14:06:26;95782.03;;;11.01;35.35
63019;BME280;49105;46.046;10.760;2023-03-16T14:08:57;95776.19;;;11.04;35.40
63019;BME280;49105;46.046;10.760;2023-03-16T14:11:28;95784.38;;;11.12;35.28
63019;BME280;49105;46.046;10.760;2023-03-16T14:13:58;95780.41;;;11.10;34.80
63019;BME280;49105;46.046;10.760;2023-03-16T14:16:27;95776.97;;;11.04;34.68
63019;BME280;49105;46.046;10.760;2023-03-16T14:21:30;95781.53;;;10.99;34.57
63019;BME280;49105;46.046;10.760;2023-03-16T14:24:05;95782.56;;;10.98;35.07
63019;BME280;49105;46.046;10.760;2023-03-16T14:26:46;95786.81;;;10.99;34.95
63019;BME280;49105;46.046;10.760;2023-03-16T14:29:30;95787.84;;;10.98;34.71
63019;BME280;49105;46.046;10.760;2023-03-16T14:32:24;95801.63;;;11.00;34.64
63019;BME280;49105;46.046;10.760;2023-03-16T14:34:59;95792.63;;;11.01;34.97
63019;BME280;49105;46.046;10.760;2023-03-16T14:37:33;95787.84;;;10.98;35.23
63019;BME280;49105;46.046;10.760;2023-03-16T14:40:06;95783.13;;;10.95;35.15
63019;BME280;49105;46.046;10.760;2023-03-16T14:42:41;95783.34;;;10.98;35.15
63019;BME280;49105;46.046;10.760;2023-03-16T14:45:20;95776.47;;;10.97;35.47
63019;BME280;49105;46.046;10.760;2023-03-16T14:47:47;95781.50;;;10.93;35.44
63019;BME280;49105;46.046;10.760;2023-03-16T14:50:25;95788.97;;;10.86;35.87
63019;BME280;49105;46.046;10.760;2023-03-16T14:52:53;95783.16;;;10.84;35.66
63019;BME280;49105;46.046;10.760;2023-03-16T14:55:22;95784.22;;;10.83;36.15
63019;BME280;49105;46.046;10.760;2023-03-16T14:57:49;95785.81;;;10.79;36.13
63019;BME280;49105;46.046;10.760;2023-03-16T15:00:18;95792.16;;;10.73;35.86